createdAt,value
2023-01-17T00:01:46.575Z,2.00
2023-01-17T00:04:32.898Z,1.87
2023-01-17T00:07:18.349Z,2.70
2023-01-17T00:09:54.155Z,2.90
2023-01-17T00:12:22.940Z,2.63
2023-01-17T00:14:53.968Z,3.03
2023-01-17T00:17:21.534Z,2.60
2023-01-17T00:20:07.098Z,3.10
2023-01-17T00:22:53.115Z,2.77
2023-01-17T00:25:43.423Z,2.77
2023-01-17T00:28:10.613Z,3.40
2023-01-17T00:30:39.017Z,3.20
2023-01-17T00:33:05.921Z,3.50
2023-01-17T00:35:33.869Z,3.43
2023-01-17T00:38:03.168Z,3.97
2023-01-17T00:40:30.821Z,4.00
2023-01-17T00:43:16.468Z,3.80
2023-01-17T00:46:04.688Z,4.73
2023-01-17T00:48:51.167Z,4.53
2023-01-17T00:51:38.233Z,4.50
2023-01-17T00:54:24.330Z,4.87
2023-01-17T00:57:10.457Z,5.07
2023-01-17T00:59:55.980Z,4.97
2023-01-17T01:02:44.417Z,6.20
2023-01-17T01:05:32.655Z,5.57
2023-01-17T01:08:18.269Z,6.33
2023-01-17T01:11:05.354Z,5.50
2023-01-17T01:13:51.903Z,6.23
2023-01-17T01:16:39.048Z,5.43
2023-01-17T01:19:25.870Z,6.77
2023-01-17T01:22:11.448Z,6.23
2023-01-17T01:24:57.084Z,6.03
2023-01-17T01:27:42.624Z,6.67
2023-01-17T01:30:30.084Z,5.73
2023-01-17T01:33:15.731Z,5.50
2023-01-17T01:35:44.135Z,5.50
2023-01-17T01:38:11.078Z,5.97
2023-01-17T01:40:47.648Z,6.47
2023-01-17T01:43:18.181Z,6.53
2023-01-17T01:45:51.706Z,5.97
2023-01-17T01:48:35.282Z,5.37
2023-01-17T01:51:11.913Z,5.47
2023-01-17T01:53:46.074Z,4.93
2023-01-17T01:56:15.396Z,5.43
2023-01-17T01:58:48.048Z,5.50
2023-01-17T02:01:16.004Z,5.60
2023-01-17T02:03:44.364Z,5.87
2023-01-17T02:06:27.324Z,5.83
2023-01-17T02:08:55.888Z,6.20
2023-01-17T02:11:22.912Z,6.57
2023-01-17T02:13:49.816Z,5.73
2023-01-17T02:16:38.081Z,5.67
2023-01-17T02:19:37.632Z,5.23
2023-01-17T02:22:33.299Z,6.10
2023-01-17T02:25:31.074Z,5.87
2023-01-17T02:28:23.932Z,5.73
2023-01-17T02:30:57.792Z,5.67
2023-01-17T02:33:33.850Z,5.43
2023-01-17T02:36:10.851Z,5.20
2023-01-17T02:38:50.998Z,5.27
2023-01-17T02:41:23.567Z,4.83
2023-01-17T02:43:51.531Z,4.83
2023-01-17T02:46:20.070Z,4.67
2023-01-17T02:48:48.975Z,4.33
2023-01-17T02:51:51.294Z,4.13
2023-01-17T02:54:39.371Z,3.73
2023-01-17T02:57:29.731Z,4.17
2023-01-17T03:00:06.611Z,3.50
2023-01-17T03:02:48.722Z,2.93
2023-01-17T03:05:23.867Z,2.80
2023-01-17T03:07:52.745Z,2.93
2023-01-17T03:10:21.611Z,2.37
2023-01-17T03:12:48.648Z,2.27
2023-01-17T03:15:17.607Z,2.03
2023-01-17T03:17:51.913Z,1.80
2023-01-17T03:20:21.584Z,2.00
2023-01-17T03:22:49.427Z,1.20
2023-01-17T03:25:17.463Z,1.20
2023-01-17T03:27:44.603Z,1.37
2023-01-17T03:30:13.005Z,1.10
2023-01-17T03:32:39.913Z,1.10
2023-01-17T03:35:09.381Z,0.80
2023-01-17T03:37:36.243Z,0.97
2023-01-17T03:40:03.569Z,0.80
2023-01-17T03:42:30.413Z,0.80
2023-01-17T03:44:57.306Z,0.80
2023-01-17T03:47:24.291Z,0.73
2023-01-17T03:49:51.801Z,0.70
2023-01-17T03:52:20.041Z,0.70
2023-01-17T03:54:48.362Z,0.60
2023-01-17T03:57:15.685Z,0.57
2023-01-17T03:59:42.600Z,0.70
2023-01-17T04:02:09.658Z,0.50
2023-01-17T04:04:36.645Z,0.53
2023-01-17T04:07:03.583Z,0.47
2023-01-17T04:09:33.994Z,0.60
2023-01-17T04:12:01.633Z,0.50
2023-01-17T04:14:28.589Z,0.47
2023-01-17T04:16:56.448Z,0.40
2023-01-17T04:19:23.572Z,0.60
2023-01-17T04:21:50.980Z,0.30
2023-01-17T04:24:18.246Z,0.30
2023-01-17T04:26:46.462Z,0.40
2023-01-17T04:29:13.318Z,0.40
2023-01-17T04:31:40.312Z,0.40
2023-01-17T04:34:07.245Z,0.53
2023-01-17T04:36:34.194Z,0.30
2023-01-17T04:39:01.081Z,0.47
2023-01-17T04:41:27.951Z,0.50
2023-01-17T04:43:56.377Z,0.60
2023-01-17T04:46:23.697Z,0.70
2023-01-17T04:48:50.616Z,0.70
2023-01-17T04:51:17.493Z,0.77
2023-01-17T04:53:44.366Z,0.50
2023-01-17T04:56:11.331Z,1.03
2023-01-17T04:58:38.438Z,0.50
2023-01-17T05:01:08.509Z,0.77
2023-01-17T05:03:36.318Z,0.87
2023-01-17T05:06:03.412Z,1.10
2023-01-17T05:08:30.377Z,0.80
2023-01-17T05:10:57.285Z,0.90
2023-01-17T05:13:24.208Z,1.03
2023-01-17T05:15:51.394Z,0.93
2023-01-17T05:18:19.842Z,1.33
2023-01-17T05:20:46.949Z,1.30
2023-01-17T05:23:13.936Z,1.27
2023-01-17T05:25:44.733Z,1.20
2023-01-17T05:28:13.521Z,1.10
2023-01-17T05:30:41.003Z,2.30
2023-01-17T05:33:10.012Z,1.03
2023-01-17T05:35:38.523Z,0.97
2023-01-17T05:38:05.492Z,0.87
2023-01-17T05:40:34.082Z,1.27
2023-01-17T05:43:05.336Z,1.17
2023-01-17T05:45:33.561Z,1.30
2023-01-17T05:48:01.356Z,1.30
2023-01-17T05:50:31.666Z,0.93
2023-01-17T05:53:03.661Z,0.90
2023-01-17T05:55:32.333Z,1.17
2023-01-17T05:57:59.891Z,1.30
2023-01-17T06:00:27.344Z,1.60
2023-01-17T06:02:56.215Z,1.50
2023-01-17T06:05:24.745Z,1.20
2023-01-17T06:07:51.876Z,1.20
2023-01-17T06:10:22.187Z,0.80
2023-01-17T06:12:49.727Z,0.53
2023-01-17T06:15:18.176Z,0.70
2023-01-17T06:17:45.152Z,1.07
2023-01-17T06:20:12.980Z,0.77
2023-01-17T06:22:40.100Z,0.97
2023-01-17T06:25:07.992Z,0.63
2023-01-17T06:27:36.206Z,1.13
2023-01-17T06:30:03.600Z,1.23
2023-01-17T06:32:30.650Z,1.30
2023-01-17T06:34:57.528Z,1.10
2023-01-17T06:37:24.562Z,1.53
2023-01-17T06:39:51.457Z,1.07
2023-01-17T06:42:18.345Z,1.00
2023-01-17T06:44:46.749Z,0.93
2023-01-17T06:47:13.684Z,1.30
2023-01-17T06:49:40.550Z,1.00
2023-01-17T06:52:07.438Z,0.87
2023-01-17T06:54:34.325Z,1.40
2023-01-17T06:57:01.284Z,1.30
2023-01-17T06:59:29.021Z,1.50
2023-01-17T07:01:57.198Z,0.80
2023-01-17T07:04:28.472Z,1.50
2023-01-17T07:06:55.740Z,0.80
2023-01-17T07:09:22.646Z,1.37
2023-01-17T07:11:51.677Z,1.03
2023-01-17T07:14:18.596Z,1.00
2023-01-17T07:16:46.800Z,1.37
2023-01-17T07:19:14.978Z,1.00
2023-01-17T07:21:41.934Z,0.90
2023-01-17T07:24:09.400Z,1.10
2023-01-17T07:26:37.961Z,1.97
2023-01-17T07:29:05.531Z,1.07
2023-01-17T07:31:38.325Z,0.93
2023-01-17T07:34:05.688Z,1.10
2023-01-17T07:36:34.272Z,1.60
2023-01-17T07:39:01.586Z,1.50
2023-01-17T07:41:31.077Z,1.50
2023-01-17T07:43:59.024Z,1.47
2023-01-17T07:46:26.192Z,1.77
2023-01-17T07:48:53.175Z,1.93
2023-01-17T07:51:20.483Z,1.60
2023-01-17T07:53:50.039Z,1.40
2023-01-17T07:56:17.851Z,1.40
2023-01-17T07:58:44.884Z,1.60
2023-01-17T08:01:15.511Z,1.47
2023-01-17T08:03:43.877Z,1.20
2023-01-17T08:06:20.303Z,1.23
2023-01-17T08:08:52.205Z,1.13
2023-01-17T08:11:23.302Z,1.77
2023-01-17T08:13:57.134Z,1.20
2023-01-17T08:16:25.280Z,1.60
2023-01-17T08:18:53.101Z,0.90
2023-01-17T08:21:20.068Z,1.10
2023-01-17T08:23:50.150Z,1.30
2023-01-17T08:26:22.465Z,1.20
2023-01-17T08:28:55.736Z,1.10
2023-01-17T08:31:24.794Z,1.10
2023-01-17T08:33:52.003Z,1.37
2023-01-17T08:39:23.235Z,2.80
2023-01-17T08:41:50.186Z,1.30
2023-01-17T08:44:18.604Z,1.30
2023-01-17T08:46:45.857Z,1.57
2023-01-17T08:49:14.298Z,0.90
2023-01-17T08:51:41.611Z,1.07
2023-01-17T08:54:12.798Z,1.57
2023-01-17T08:56:46.798Z,1.17
2023-01-17T08:59:14.388Z,1.30
2023-01-17T09:01:45.742Z,1.37
2023-01-17T09:04:14.710Z,1.30
2023-01-17T09:06:48.790Z,1.30
2023-01-17T09:09:17.548Z,1.23
2023-01-17T09:11:46.264Z,1.23
2023-01-17T09:14:13.829Z,1.00
2023-01-17T09:16:41.262Z,1.50
2023-01-17T09:19:09.843Z,1.00
2023-01-17T09:21:36.807Z,1.80
2023-01-17T09:24:13.700Z,1.43
2023-01-17T09:26:41.337Z,1.13
2023-01-17T09:29:10.330Z,1.40
2023-01-17T09:31:38.321Z,1.17
2023-01-17T09:34:06.618Z,0.90
2023-01-17T09:36:34.794Z,1.20
2023-01-17T09:39:04.237Z,1.67
2023-01-17T09:41:35.982Z,1.63
2023-01-17T09:44:14.063Z,1.30
2023-01-17T09:46:46.690Z,1.57
2023-01-17T09:49:36.787Z,1.23
2023-01-17T09:52:07.470Z,1.50
2023-01-17T09:54:40.921Z,1.20
2023-01-17T09:57:24.556Z,1.30
2023-01-17T10:00:04.149Z,1.00
2023-01-17T10:02:56.120Z,1.37
2023-01-17T10:05:46.765Z,1.27
2023-01-17T10:08:33.587Z,1.10
2023-01-17T10:11:37.216Z,1.13
2023-01-17T10:14:36.438Z,1.10
2023-01-17T10:17:18.519Z,1.60
2023-01-17T10:20:11.060Z,1.20
2023-01-17T10:23:03.881Z,1.30
2023-01-17T10:25:46.263Z,1.13
2023-01-17T10:28:18.244Z,1.27
2023-01-17T10:30:50.378Z,1.07
2023-01-17T10:33:26.116Z,1.10
2023-01-17T10:35:57.820Z,1.57
2023-01-17T10:38:31.882Z,1.03
2023-01-17T10:41:09.209Z,1.97
2023-01-17T10:43:45.441Z,2.57
2023-01-17T10:46:19.729Z,1.10
2023-01-17T10:48:52.362Z,1.13
2023-01-17T10:51:59.785Z,2.03
2023-01-17T10:54:51.388Z,1.23
2023-01-17T10:57:22.433Z,2.40
2023-01-17T10:59:50.747Z,0.90
2023-01-17T11:02:25.716Z,1.33
2023-01-17T11:04:57.454Z,1.27
2023-01-17T11:07:28.232Z,1.33
2023-01-17T11:09:57.959Z,1.70
2023-01-17T11:12:30.467Z,1.60
2023-01-17T11:15:17.733Z,1.27
2023-01-17T11:17:52.856Z,1.37
2023-01-17T11:20:29.770Z,1.30
2023-01-17T11:23:15.499Z,1.37
2023-01-17T11:25:51.634Z,1.40
2023-01-17T11:28:33.158Z,0.97
2023-01-17T11:31:07.929Z,1.03
2023-01-17T11:33:48.949Z,1.30
2023-01-17T11:36:24.661Z,1.63
2023-01-17T11:39:06.799Z,1.53
2023-01-17T11:41:37.762Z,1.73
2023-01-17T11:44:23.262Z,1.70
2023-01-17T11:47:14.749Z,1.87
2023-01-17T11:49:44.536Z,1.43
2023-01-17T11:52:23.387Z,1.23
2023-01-17T11:54:53.734Z,1.30
2023-01-17T11:57:26.073Z,1.60
2023-01-17T12:00:03.647Z,1.50
2023-01-17T12:02:52.390Z,1.17
2023-01-17T12:05:39.225Z,2.27
2023-01-17T12:08:23.760Z,1.43
2023-01-17T12:11:04.140Z,1.00
2023-01-17T12:14:02.159Z,1.13
2023-01-17T12:16:49.957Z,1.20
2023-01-17T12:19:38.752Z,0.90
2023-01-17T12:22:34.036Z,1.47
2023-01-17T12:25:24.693Z,1.00
2023-01-17T12:28:17.110Z,1.10
2023-01-17T12:31:03.203Z,1.30
2023-01-17T12:33:45.875Z,1.33
2023-01-17T12:36:35.782Z,1.33
2023-01-17T12:39:10.016Z,1.73
2023-01-17T12:41:52.905Z,1.10
2023-01-17T12:44:37.666Z,1.17
2023-01-17T12:47:06.128Z,1.17
2023-01-17T12:49:48.322Z,1.00
2023-01-17T12:52:27.510Z,1.43
2023-01-17T12:55:02.653Z,1.43
2023-01-17T12:57:40.594Z,1.33
2023-01-17T13:00:14.223Z,1.43
2023-01-17T13:02:51.371Z,1.27
2023-01-17T13:05:26.058Z,1.33
2023-01-17T13:08:06.519Z,1.40
2023-01-17T13:10:39.760Z,1.50
2023-01-17T13:13:22.135Z,1.30
2023-01-17T13:15:54.449Z,1.17
2023-01-17T13:18:26.350Z,1.27
2023-01-17T13:21:36.466Z,1.90
2023-01-17T13:24:26.253Z,1.70
2023-01-17T13:27:26.762Z,1.20
2023-01-17T13:30:31.296Z,1.23
2023-01-17T13:33:37.235Z,1.37
2023-01-17T13:36:29.688Z,1.23
2023-01-17T13:39:16.294Z,1.97
2023-01-17T13:41:50.311Z,1.50
2023-01-17T13:44:24.483Z,2.00
2023-01-17T13:47:01.794Z,1.83
2023-01-17T13:49:35.770Z,2.27
2023-01-17T13:52:09.613Z,1.50
2023-01-17T13:54:45.749Z,1.50
2023-01-17T13:57:42.035Z,1.47
2023-01-17T14:00:58.192Z,1.80
2023-01-17T14:04:05.058Z,1.67
2023-01-17T14:06:46.768Z,2.40
2023-01-17T14:09:24.666Z,2.03
2023-01-17T14:12:00.313Z,2.13
2023-01-17T14:14:45.516Z,2.00
2023-01-17T14:17:50.099Z,2.27
2023-01-17T14:21:17.449Z,2.17
2023-01-17T14:23:58.245Z,2.73
2023-01-17T14:26:49.673Z,2.00
2023-01-17T14:29:57.003Z,2.20
2023-01-17T14:32:28.818Z,2.30
2023-01-17T14:34:57.157Z,1.93
2023-01-17T14:37:41.473Z,2.27
2023-01-17T14:40:20.446Z,2.87
2023-01-17T14:42:57.791Z,2.10
2023-01-17T14:45:29.541Z,2.63
2023-01-17T14:47:59.482Z,2.23
2023-01-17T14:50:29.796Z,1.83
2023-01-17T14:53:18.566Z,2.60
2023-01-17T14:55:57.982Z,1.90
2023-01-17T14:58:28.350Z,2.03
2023-01-17T15:01:00.409Z,2.80
2023-01-17T15:03:29.240Z,2.37
2023-01-17T15:06:09.601Z,2.73
2023-01-17T15:08:36.753Z,2.10
2023-01-17T15:11:08.810Z,2.57
2023-01-17T15:13:44.757Z,1.87
2023-01-17T15:16:23.404Z,1.97
2023-01-17T15:18:52.135Z,1.60
2023-01-17T15:21:22.395Z,2.93
2023-01-17T15:23:54.079Z,2.20
2023-01-17T15:26:25.933Z,2.30
2023-01-17T15:29:02.558Z,2.20
2023-01-17T15:31:42.304Z,2.37
2023-01-17T15:34:22.798Z,2.23
2023-01-17T15:36:50.717Z,2.60
2023-01-17T15:39:21.907Z,3.20
2023-01-17T15:41:53.174Z,2.43
2023-01-17T15:44:42.636Z,2.10
2023-01-17T15:47:29.047Z,2.73
2023-01-17T15:49:56.476Z,2.47
2023-01-17T15:52:23.463Z,2.30
2023-01-17T15:54:53.412Z,2.30
2023-01-17T15:57:27.387Z,2.33
2023-01-17T16:00:00.002Z,3.10
2023-01-17T16:02:42.893Z,2.73
2023-01-17T16:05:41.932Z,3.43
2023-01-17T16:08:51.045Z,2.80
2023-01-17T16:11:18.889Z,2.50
2023-01-17T16:13:54.487Z,3.07
2023-01-17T16:16:25.716Z,2.33
2023-01-17T16:19:00.319Z,2.80
2023-01-17T16:21:29.318Z,2.40
2023-01-17T16:23:57.768Z,2.90
2023-01-17T16:26:25.354Z,2.50
2023-01-17T16:28:53.734Z,3.27
2023-01-17T16:31:20.900Z,2.57
2023-01-17T16:33:50.578Z,2.70
2023-01-17T16:36:19.446Z,2.77
2023-01-17T16:38:51.252Z,2.30
2023-01-17T16:41:19.031Z,3.03
2023-01-17T16:43:48.281Z,2.93
2023-01-17T16:46:20.565Z,2.33
2023-01-17T16:48:50.942Z,2.73
2023-01-17T16:51:45.864Z,2.63
2023-01-17T16:54:13.845Z,3.10
2023-01-17T16:56:43.849Z,2.93
2023-01-17T16:59:11.111Z,2.73
2023-01-17T17:01:39.587Z,2.90
2023-01-17T17:04:06.936Z,2.70
2023-01-17T17:06:34.242Z,4.00
2023-01-17T17:09:01.606Z,3.27
2023-01-17T17:11:28.596Z,2.67
2023-01-17T17:13:55.729Z,3.37
2023-01-17T17:16:26.447Z,3.80
2023-01-17T17:19:00.439Z,3.20
2023-01-17T17:21:29.847Z,4.40
2023-01-17T17:24:00.151Z,3.90
2023-01-17T17:26:31.207Z,3.80
2023-01-17T17:28:58.696Z,3.10
2023-01-17T17:31:26.469Z,4.17
2023-01-17T17:34:02.739Z,5.20
2023-01-17T17:36:30.475Z,4.20
2023-01-17T17:38:58.333Z,5.10
2023-01-17T17:41:28.461Z,5.20
2023-01-17T17:43:55.673Z,5.20
2023-01-17T17:46:25.836Z,5.33
2023-01-17T17:48:53.296Z,5.53
2023-01-17T17:51:26.250Z,5.37
2023-01-17T17:53:54.428Z,4.77
2023-01-17T17:56:22.383Z,6.00
2023-01-17T17:58:50.098Z,6.10
2023-01-17T18:01:17.281Z,5.70
2023-01-17T18:03:44.731Z,5.60
2023-01-17T18:06:13.190Z,5.80
2023-01-17T18:08:41.681Z,5.90
2023-01-17T18:11:13.887Z,5.70
2023-01-17T18:13:42.684Z,6.03
2023-01-17T18:16:14.309Z,6.03
2023-01-17T18:18:46.448Z,6.83
2023-01-17T18:21:16.788Z,6.43
2023-01-17T18:23:45.499Z,6.63
2023-01-17T18:26:19.006Z,6.30
2023-01-17T18:28:47.722Z,6.43
2023-01-17T18:31:15.477Z,6.37
2023-01-17T18:33:43.111Z,6.30
2023-01-17T18:36:13.288Z,6.60
2023-01-17T18:38:43.831Z,6.33
2023-01-17T18:41:15.271Z,6.23
2023-01-17T18:43:43.356Z,6.77
2023-01-17T18:46:11.680Z,5.97
2023-01-17T18:48:45.549Z,6.20
2023-01-17T18:51:16.753Z,6.00
2023-01-17T18:53:46.102Z,6.17
2023-01-17T18:56:18.080Z,6.60
2023-01-17T18:58:48.093Z,6.13
2023-01-17T19:01:17.862Z,6.40
2023-01-17T19:03:48.158Z,6.20
2023-01-17T19:06:18.536Z,6.33
2023-01-17T19:08:45.774Z,6.57
2023-01-17T19:11:14.319Z,7.00
2023-01-17T19:13:44.323Z,6.30
2023-01-17T19:16:15.364Z,5.73
2023-01-17T19:18:43.083Z,5.83
2023-01-17T19:21:13.509Z,5.77
2023-01-17T19:23:45.551Z,6.20
2023-01-17T19:26:17.074Z,6.27
2023-01-17T19:28:46.434Z,5.67
2023-01-17T19:31:16.320Z,6.20
2023-01-17T19:33:45.586Z,5.63
2023-01-17T19:36:18.792Z,6.27
2023-01-17T19:39:02.952Z,5.87
2023-01-17T19:41:34.302Z,5.40
2023-01-17T19:44:04.433Z,4.67
2023-01-17T19:46:32.882Z,5.60
2023-01-17T19:49:00.294Z,5.37
2023-01-17T19:51:27.807Z,6.23
2023-01-17T19:53:55.224Z,5.10
2023-01-17T19:56:25.191Z,5.73
2023-01-17T19:58:54.256Z,5.80
2023-01-17T20:01:24.468Z,5.57
2023-01-17T20:03:52.339Z,6.10
2023-01-17T20:06:22.431Z,5.37
2023-01-17T20:08:50.325Z,5.90
2023-01-17T20:11:20.175Z,5.83
2023-01-17T20:13:49.185Z,4.83
2023-01-17T20:16:18.271Z,5.87
2023-01-17T20:18:45.627Z,5.20
2023-01-17T20:21:17.117Z,5.60
2023-01-17T20:23:47.249Z,5.80
2023-01-17T20:26:15.742Z,4.77
2023-01-17T20:28:47.198Z,4.67
2023-01-17T20:31:18.515Z,5.27
2023-01-17T20:33:46.995Z,5.23
2023-01-17T20:36:16.652Z,5.73
2023-01-17T20:38:44.938Z,5.03
2023-01-17T20:41:14.994Z,5.20
2023-01-17T20:43:43.344Z,4.00
2023-01-17T20:46:11.404Z,4.50
2023-01-17T20:48:44.891Z,4.77
2023-01-17T20:51:13.167Z,4.97
2023-01-17T20:53:43.206Z,4.67
2023-01-17T20:56:15.277Z,4.53
2023-01-17T20:58:42.984Z,4.40
2023-01-17T21:01:13.442Z,4.37
2023-01-17T21:03:42.278Z,3.97
2023-01-17T21:06:13.781Z,4.40
2023-01-17T21:08:43.665Z,5.03
2023-01-17T21:11:16.513Z,4.20
2023-01-17T21:13:44.850Z,5.07
2023-01-17T21:16:14.155Z,4.87
2023-01-17T21:18:45.398Z,4.93
2023-01-17T21:21:16.940Z,4.97
2023-01-17T21:23:44.933Z,4.50
2023-01-17T21:26:15.128Z,4.83
2023-01-17T21:28:44.533Z,4.93
2023-01-17T21:31:22.936Z,5.13
2023-01-17T21:33:55.038Z,4.70
2023-01-17T21:36:25.129Z,5.30
2023-01-17T21:38:56.674Z,5.00
2023-01-17T21:41:28.351Z,5.40
2023-01-17T21:43:57.364Z,4.87
2023-01-17T21:46:25.384Z,4.27
2023-01-17T21:48:53.853Z,5.23
2023-01-17T21:51:21.678Z,4.77
2023-01-17T21:53:48.693Z,4.97
2023-01-17T21:56:34.919Z,5.03
2023-01-17T21:59:01.828Z,5.13
2023-01-17T22:01:32.994Z,4.93
2023-01-17T22:04:03.509Z,4.50
2023-01-17T22:06:36.307Z,4.57
2023-01-17T22:09:04.295Z,4.53
2023-01-17T22:11:31.302Z,4.90
2023-01-17T22:13:59.401Z,4.83
2023-01-17T22:16:26.438Z,5.50
2023-01-17T22:18:53.498Z,5.47
2023-01-17T22:21:25.085Z,4.93
2023-01-17T22:23:54.940Z,4.70
2023-01-17T22:26:24.765Z,5.67
2023-01-17T22:28:52.311Z,5.10
2023-01-17T22:31:22.423Z,5.60
2023-01-17T22:33:54.325Z,5.03
2023-01-17T22:36:23.434Z,5.17
2023-01-17T22:38:51.116Z,6.20
2023-01-17T22:41:21.693Z,5.50
2023-01-17T22:43:50.721Z,6.40
2023-01-17T22:46:21.571Z,6.10
2023-01-17T22:48:49.219Z,5.70
2023-01-17T22:51:18.990Z,6.20
2023-01-17T22:53:49.892Z,6.57
2023-01-17T22:56:19.653Z,6.70
2023-01-17T22:58:55.610Z,6.27
2023-01-17T23:01:47.028Z,6.07
2023-01-17T23:04:17.043Z,5.90
2023-01-17T23:06:44.022Z,6.27
2023-01-17T23:09:15.279Z,6.93
2023-01-17T23:11:47.149Z,7.07
2023-01-17T23:14:17.722Z,7.17
2023-01-17T23:17:05.844Z,6.43
2023-01-17T23:19:36.648Z,6.30
2023-01-17T23:22:16.284Z,6.47
2023-01-17T23:24:48.791Z,6.90
2023-01-17T23:27:37.678Z,6.40
2023-01-17T23:30:07.692Z,6.47
2023-01-17T23:32:34.667Z,6.77
2023-01-17T23:35:01.644Z,6.77
2023-01-17T23:37:49.465Z,5.87
2023-01-17T23:40:19.095Z,6.43
2023-01-17T23:43:04.919Z,7.00
2023-01-17T23:45:35.639Z,6.87
2023-01-17T23:48:05.376Z,7.13
2023-01-17T23:50:32.884Z,7.17
2023-01-17T23:53:00.230Z,6.83
2023-01-17T23:55:28.613Z,7.33
2023-01-17T23:57:55.933Z,8.10
